Terminal Aerodrome Forecast
Issued by NWS

Current Version | Previous Version | Graphics & Text | Print | Product List | Glossary On
Versions: 1 2 3 4 5 6 7 8 9 10 11 12 13 14 15 16 17 18 19 20 21 22 23 24 25 26 27 28 29 30 31 32 33 34 35 36 37 38 39 40 41 42 43 44 45 46 47 48 49 50
000
FTUS41 KRNK 022326
TAFLWB
TAF
KLWB 022326Z 0300/0324 00000KT 6SM -SHRA VCTS SCT030 BKN050CB
      TEMPO 0300/0303 3SM TSRA BR OVC025CB
     FM030300 26005KT P6SM VCSH BKN030 BKN045
     FM030600 00000KT 4SM BR BKN040
      TEMPO 0308/0312 1/2SM FG
     FM031500 29004KT P6SM SCT035 BKN120
     FM031800 26005KT P6SM SCT050=

USA.gov is the U.S. government's official web portal to all federal, state and local government web resources and services.